Time;durP1;ratioP1;P1;durP2;ratioP2;P2;SDS_P1;SDS_P2;PMS_P1;PMS_P2;Temp;Humidity;BMP_temperature;BMP_pressure;BME280_temperature;BME280_humidity;BME280_pressure;Samples;Min_cycle;Max_cycle;Signal;HPM_P1;HPM_P2
2023/06/25 00:02:19;;;;;;;;;;;;;;;17.66;40.76;101248.88;4928398;28;98270;-72
2023/06/25 00:04:46;;;;;;;;;;;;;;;17.63;40.70;101243.19;4929536;28;98531;-74
2023/06/25 00:07:12;;;;;;;;;;;;;;;17.60;40.92;101236.41;4936107;28;98010;-73
2023/06/25 00:09:40;;;;;;;;;;;;;;;17.58;40.86;101235.09;4925513;28;98061;-74
2023/06/25 00:12:07;;;;;;;;;;;;;;;17.57;40.83;101241.69;4940446;28;98157;-73
2023/06/25 00:14:34;;;;;;;;;;;;;;;17.56;40.95;101235.38;4941537;28;98277;-74
2023/06/25 00:17:01;;;;;;;;;;;;;;;17.54;40.91;101240.34;4942359;28;98334;-74
2023/06/25 00:19:27;;;;;;;;;;;;;;;17.54;40.87;101237.63;4909287;28;98366;-74
2023/06/25 00:21:54;;;;;;;;;;;;;;;17.53;41.00;101229.75;4925439;28;98362;-72
2023/06/25 00:24:23;;;;;;;;;;;;;;;17.51;40.97;101243.66;4926309;28;98451;-73
2023/06/25 00:26:49;;;;;;;;;;;;;;;17.50;40.89;101243.94;4910345;28;98061;-73
2023/06/25 00:29:16;;;;;;;;;;;;;;;17.48;40.92;101236.06;4944316;28;97992;-74
2023/06/25 00:31:43;;;;;;;;;;;;;;;17.44;40.79;101237.75;4930654;28;99866;-73
2023/06/25 00:34:10;;;;;;;;;;;;;;;17.40;40.82;101236.72;4943166;28;98149;-71
2023/06/25 00:36:36;;;;;;;;;;;;;;;17.37;41.03;101237.31;4940593;28;98008;-73
2023/06/25 00:39:04;;;;;;;;;;;;;;;17.33;40.87;101237.09;4926888;28;98292;-73
2023/06/25 00:41:31;;;;;;;;;;;;;;;17.30;41.06;101231.44;4931400;28;98677;-74
2023/06/25 00:43:57;;;;;;;;;;;;;;;17.26;40.97;101244.03;4909294;28;98151;-74
2023/06/25 00:46:25;;;;;;;;;;;;;;;17.21;40.92;101231.25;4914497;28;98079;-74
2023/06/25 00:48:53;;;;;;;;;;;;;;;17.20;41.10;101240.53;4961630;28;98061;-73
2023/06/25 00:51:26;;;;;;;;;;;;;;;17.20;41.08;101234.28;4927718;28;98170;-74
2023/06/25 00:53:53;;;;;;;;;;;;;;;17.18;40.94;101232.66;4958586;28;98105;-73
2023/06/25 00:56:27;;;;;;;;;;;;;;;17.18;40.94;101238.13;4907920;28;99042;-72
2023/06/25 00:59:00;;;;;;;;;;;;;;;17.18;41.10;101231.88;4913882;28;97918;-74
2023/06/25 01:01:33;;;;;;;;;;;;;;;17.16;40.93;101229.41;4911510;28;98175;-73
2023/06/25 01:04:04;;;;;;;;;;;;;;;17.12;40.99;101233.03;4925443;28;98065;-74
2023/06/25 01:06:33;;;;;;;;;;;;;;;17.07;41.08;101233.09;4947974;28;99620;-73
2023/06/25 01:09:00;;;;;;;;;;;;;;;17.01;41.02;101232.34;4958588;28;98079;-75
2023/06/25 01:11:28;;;;;;;;;;;;;;;16.98;40.96;101235.66;4926032;28;98485;-74
2023/06/25 01:13:54;;;;;;;;;;;;;;;16.97;41.05;101244.09;4928132;28;97912;-73
2023/06/25 01:16:21;;;;;;;;;;;;;;;16.93;41.09;101244.69;4923413;28;97967;-73
2023/06/25 01:18:48;;;;;;;;;;;;;;;16.90;41.20;101250.72;4925183;28;97953;-74
2023/06/25 01:21:14;;;;;;;;;;;;;;;16.90;41.11;101244.47;4924047;28;98307;-74
2023/06/25 01:23:40;;;;;;;;;;;;;;;16.88;41.04;101246.66;4943000;28;98377;-73
2023/06/25 01:26:06;;;;;;;;;;;;;;;16.86;41.19;101248.88;4924504;28;99530;-72
2023/06/25 01:28:34;;;;;;;;;;;;;;;16.83;41.22;101246.75;4925303;28;97935;-74
2023/06/25 01:31:00;;;;;;;;;;;;;;;16.79;41.14;101249.22;4922811;28;98069;-74
2023/06/25 01:33:26;;;;;;;;;;;;;;;16.73;41.33;101241.38;4917196;28;98515;-72
2023/06/25 01:35:54;;;;;;;;;;;;;;;16.69;41.16;101247.38;4924510;28;98099;-74
2023/06/25 01:38:20;;;;;;;;;;;;;;;16.66;41.27;101237.09;4917615;28;99757;-74
2023/06/25 01:40:46;;;;;;;;;;;;;;;16.69;41.13;101235.69;4924257;28;98098;-74
2023/06/25 01:43:13;;;;;;;;;;;;;;;16.76;41.18;101236.19;4924006;28;98068;-74
2023/06/25 01:45:39;;;;;;;;;;;;;;;16.81;41.16;101230.69;4925696;28;98180;-73
2023/06/25 01:48:05;;;;;;;;;;;;;;;16.88;41.18;101219.44;4925043;28;99587;-74
2023/06/25 01:50:32;;;;;;;;;;;;;;;16.93;41.14;101219.38;4927284;28;98967;-74
2023/06/25 01:52:58;;;;;;;;;;;;;;;16.97;41.22;101220.41;4944148;28;98128;-72
2023/06/25 01:55:25;;;;;;;;;;;;;;;16.98;41.19;101221.22;4943926;28;97926;-74
2023/06/25 01:57:51;;;;;;;;;;;;;;;17.00;41.15;101216.31;4934275;28;99606;-74
2023/06/25 02:00:17;;;;;;;;;;;;;;;17.00;41.33;101219.81;4929340;28;100722;-74
2023/06/25 02:02:44;;;;;;;;;;;;;;;17.00;41.30;101219.03;4925769;28;98654;-74
2023/06/25 02:05:10;;;;;;;;;;;;;;;17.02;41.28;101219.56;4928424;28;99276;-74
2023/06/25 02:07:38;;;;;;;;;;;;;;;17.01;41.19;101216.00;4959267;27;107441;-73
2023/06/25 02:10:05;;;;;;;;;;;;;;;17.02;41.28;101211.38;4931664;28;98503;-73
2023/06/25 02:12:32;;;;;;;;;;;;;;;17.00;41.19;101202.69;4923129;28;98230;-73
2023/06/25 02:14:58;;;;;;;;;;;;;;;16.97;41.45;101203.25;4930570;28;98048;-74
2023/06/25 02:17:25;;;;;;;;;;;;;;;16.94;41.26;101201.94;4940162;28;98127;-73
2023/06/25 02:19:53;;;;;;;;;;;;;;;16.91;41.49;101203.34;4925816;27;99696;-72
2023/06/25 02:22:18;;;;;;;;;;;;;;;16.88;41.33;101198.47;4935738;28;99112;-74
2023/06/25 02:24:46;;;;;;;;;;;;;;;16.86;41.40;101197.97;4951118;27;97878;-75
2023/06/25 02:27:13;;;;;;;;;;;;;;;16.82;41.40;101196.94;4931021;28;98104;-74
2023/06/25 02:29:41;;;;;;;;;;;;;;;16.78;41.45;101200.50;4933698;28;98253;-73
2023/06/25 02:32:08;;;;;;;;;;;;;;;16.74;41.46;101204.91;4937294;28;98216;-73
2023/06/25 02:34:34;;;;;;;;;;;;;;;16.72;41.52;101199.72;4953115;28;101325;-74
2023/06/25 02:37:10;;;;;;;;;;;;;;;16.70;41.51;101201.91;4953135;28;98023;-73
2023/06/25 02:39:36;;;;;;;;;;;;;;;16.68;41.45;101196.78;4934233;27;98010;-73
2023/06/25 02:42:02;;;;;;;;;;;;;;;16.66;41.44;101198.16;4925558;28;98024;-74
2023/06/25 02:44:29;;;;;;;;;;;;;;;16.64;41.45;101192.22;4931494;28;98019;-75
2023/06/25 02:46:57;;;;;;;;;;;;;;;16.61;41.44;101196.31;4932188;27;98752;-73
2023/06/25 02:49:23;;;;;;;;;;;;;;;16.60;41.38;101197.41;4946333;28;97949;-73
2023/06/25 02:51:51;;;;;;;;;;;;;;;16.60;41.36;101196.63;4923885;27;103864;-73
2023/06/25 02:54:18;;;;;;;;;;;;;;;16.58;41.36;101196.06;4935996;28;98077;-75
2023/06/25 02:56:46;;;;;;;;;;;;;;;16.57;41.55;101192.56;4931687;28;98113;-75
2023/06/25 02:59:13;;;;;;;;;;;;;;;16.56;41.62;101198.28;4931292;28;98100;-74
2023/06/25 03:01:39;;;;;;;;;;;;;;;16.54;41.44;101200.47;4930170;28;97970;-75
2023/06/25 03:04:06;;;;;;;;;;;;;;;16.53;41.30;101198.88;4932020;28;99344;-73
2023/06/25 03:06:34;;;;;;;;;;;;;;;16.51;41.34;101203.81;4928125;28;97912;-73
2023/06/25 03:09:00;;;;;;;;;;;;;;;16.50;41.48;101199.44;4928550;28;98279;-73
2023/06/25 03:11:27;;;;;;;;;;;;;;;16.50;41.53;101197.53;4926366;28;98069;-75
2023/06/25 03:13:53;;;;;;;;;;;;;;;16.49;41.46;101203.25;4927065;28;98178;-74
2023/06/25 03:16:19;;;;;;;;;;;;;;;16.48;41.49;101194.28;4942066;28;98189;-74
2023/06/25 03:18:49;;;;;;;;;;;;;;;16.48;41.42;101193.50;4942633;28;98206;-73
2023/06/25 03:21:16;;;;;;;;;;;;;;;16.44;41.48;101193.25;4925597;28;98278;-75
2023/06/25 03:23:42;;;;;;;;;;;;;;;16.44;41.49;101190.53;4930541;28;99292;-75
2023/06/25 03:26:08;;;;;;;;;;;;;;;16.44;41.35;101187.81;4927180;28;98060;-75
2023/06/25 03:28:36;;;;;;;;;;;;;;;16.42;41.50;101179.13;4942971;28;99668;-72
2023/06/25 03:31:03;;;;;;;;;;;;;;;16.42;41.35;101170.94;4942725;28;98309;-74
2023/06/25 03:33:30;;;;;;;;;;;;;;;16.41;41.34;101181.03;4921824;28;98108;-75
2023/06/25 03:35:57;;;;;;;;;;;;;;;16.40;41.44;101182.13;4927975;28;98241;-73
2023/06/25 03:38:24;;;;;;;;;;;;;;;16.40;41.44;101184.84;4918501;28;97979;-75
2023/06/25 03:40:50;;;;;;;;;;;;;;;16.43;41.70;101172.59;4940897;28;99148;-73
2023/06/25 03:43:17;;;;;;;;;;;;;;;16.45;41.35;101181.25;4928167;28;99886;-75
2023/06/25 03:45:43;;;;;;;;;;;;;;;16.48;41.12;101188.03;4922989;28;98167;-74
2023/06/25 03:48:09;;;;;;;;;;;;;;;16.46;41.51;101182.88;4940085;28;98012;-74
2023/06/25 03:50:36;;;;;;;;;;;;;;;16.47;41.40;101184.53;4924936;28;98210;-74
2023/06/25 03:53:02;;;;;;;;;;;;;;;16.47;41.31;101187.25;4919200;28;98005;-75
2023/06/25 03:55:28;;;;;;;;;;;;;;;16.50;41.20;101178.47;4941819;28;98084;-76
2023/06/25 03:57:58;;;;;;;;;;;;;;;16.51;41.30;101169.25;4929515;28;98196;-75
2023/06/25 04:00:24;;;;;;;;;;;;;;;16.55;41.42;101167.56;4924493;28;98142;-76
2023/06/25 04:02:51;;;;;;;;;;;;;;;16.59;41.24;101168.59;4941376;28;98110;-74
2023/06/25 04:05:18;;;;;;;;;;;;;;;16.63;41.32;101169.63;4929318;28;97865;-73
2023/06/25 04:07:44;;;;;;;;;;;;;;;16.65;41.15;101167.41;4944031;28;98042;-74
2023/06/25 04:10:11;;;;;;;;;;;;;;;16.68;41.24;101164.13;4930511;28;98401;-75
2023/06/25 04:12:37;;;;;;;;;;;;;;;16.72;41.35;101163.53;4921020;27;97828;-74
2023/06/25 04:15:04;;;;;;;;;;;;;;;16.77;41.22;101164.31;4945671;28;98325;-74
2023/06/25 04:17:31;;;;;;;;;;;;;;;16.81;41.26;101168.06;4945426;28;97927;-74
2023/06/25 04:19:57;;;;;;;;;;;;;;;16.84;41.13;101166.69;4933450;28;98597;-76
2023/06/25 04:22:26;;;;;;;;;;;;;;;16.84;41.20;101156.59;4942826;28;98394;-74
2023/06/25 04:24:52;;;;;;;;;;;;;;;16.85;41.18;101163.66;4934192;27;99286;-76
2023/06/25 04:27:20;;;;;;;;;;;;;;;16.88;41.20;101159.53;4942014;28;98648;-76
2023/06/25 04:29:46;;;;;;;;;;;;;;;16.91;41.24;101159.78;4931170;28;98150;-74
2023/06/25 04:32:12;;;;;;;;;;;;;;;16.96;41.18;101158.09;4940939;28;97971;-76
2023/06/25 04:34:39;;;;;;;;;;;;;;;17.01;41.05;101160.72;4927481;28;97939;-75
2023/06/25 04:37:05;;;;;;;;;;;;;;;17.05;41.27;101161.75;4920728;28;98029;-76
2023/06/25 04:39:33;;;;;;;;;;;;;;;17.08;41.25;101155.72;4931596;28;99195;-76
2023/06/25 04:41:59;;;;;;;;;;;;;;;17.13;41.11;101159.22;4946389;28;98199;-73
2023/06/25 04:44:26;;;;;;;;;;;;;;;17.20;41.05;101160.72;4946164;28;115193;-76
2023/06/25 04:46:52;;;;;;;;;;;;;;;17.27;40.93;101164.72;4942267;28;99302;-75
2023/06/25 04:49:19;;;;;;;;;;;;;;;17.39;40.89;101170.50;4930855;28;98250;-75
2023/06/25 04:51:45;;;;;;;;;;;;;;;17.49;40.98;101171.44;4929644;27;98216;-75
2023/06/25 04:54:12;;;;;;;;;;;;;;;17.60;40.74;101170.19;4928552;28;99755;-75
2023/06/25 04:56:38;;;;;;;;;;;;;;;17.68;40.80;101169.50;4944818;28;97926;-75
2023/06/25 04:59:04;;;;;;;;;;;;;;;17.77;40.94;101173.22;4927237;28;107297;-75
2023/06/25 05:01:32;;;;;;;;;;;;;;;17.84;40.86;101164.63;4927063;28;98467;-75
2023/06/25 05:03:58;;;;;;;;;;;;;;;17.90;40.76;101164.25;4947446;27;97953;-74
2023/06/25 05:06:25;;;;;;;;;;;;;;;18.05;40.75;101165.91;4899030;28;98419;-75
2023/06/25 05:08:52;;;;;;;;;;;;;;;18.25;40.56;101166.66;4921982;28;98666;-74
2023/06/25 05:11:18;;;;;;;;;;;;;;;18.43;40.61;101163.03;4937569;28;98096;-75
2023/06/25 05:13:45;;;;;;;;;;;;;;;18.59;40.34;101163.53;4940104;28;98581;-74
2023/06/25 05:16:11;;;;;;;;;;;;;;;18.72;40.42;101170.13;4921882;28;99043;-75
2023/06/25 05:18:39;;;;;;;;;;;;;;;18.81;40.53;101163.63;4921339;28;98124;-75
2023/06/25 05:21:06;;;;;;;;;;;;;;;18.92;40.51;101164.22;4923403;28;98237;-75
2023/06/25 05:23:45;;;;;;;;;;;;;;;19.04;40.39;101169.94;4921958;28;97938;-74
2023/06/25 05:26:11;;;;;;;;;;;;;;;19.13;40.32;101173.56;4941796;28;102453;-74
2023/06/25 05:28:41;;;;;;;;;;;;;;;19.19;40.50;101170.72;4923904;28;98189;-75
2023/06/25 05:31:07;;;;;;;;;;;;;;;19.25;40.28;101166.75;4939053;28;98928;-74
2023/06/25 05:33:35;;;;;;;;;;;;;;;19.29;40.58;101170.47;4924520;28;97966;-74
2023/06/25 05:36:02;;;;;;;;;;;;;;;19.34;40.45;101170.38;4922197;28;100173;-75
2023/06/25 05:38:28;;;;;;;;;;;;;;;19.40;40.50;101166.41;4939404;28;98573;-74
2023/06/25 05:40:54;;;;;;;;;;;;;;;19.47;40.52;101165.97;4921453;28;98385;-75
2023/06/25 05:43:21;;;;;;;;;;;;;;;19.56;40.24;101161.38;4924452;28;98304;-74
2023/06/25 05:45:47;;;;;;;;;;;;;;;19.65;40.26;101154.09;4917728;28;98257;-74
2023/06/25 05:48:14;;;;;;;;;;;;;;;19.76;40.29;101165.53;4924180;28;98206;-74
2023/06/25 05:50:41;;;;;;;;;;;;;;;19.88;40.16;101157.56;4938229;28;98284;-74
2023/06/25 05:53:09;;;;;;;;;;;;;;;20.01;40.25;101144.94;4925693;28;98340;-75
2023/06/25 05:55:36;;;;;;;;;;;;;;;20.16;40.39;101149.19;4917915;27;100287;-75
2023/06/25 05:58:03;;;;;;;;;;;;;;;20.37;39.98;101149.44;4906356;28;98484;-75
2023/06/25 06:00:29;;;;;;;;;;;;;;;20.64;39.89;101154.72;4942826;28;99539;-74
2023/06/25 06:02:56;;;;;;;;;;;;;;;20.95;39.58;101143.66;4926316;28;98122;-74
2023/06/25 06:05:23;;;;;;;;;;;;;;;21.15;39.68;101142.22;4936249;28;98353;-74
2023/06/25 06:07:49;;;;;;;;;;;;;;;21.31;39.60;101151.56;4935808;27;98294;-75
2023/06/25 06:10:16;;;;;;;;;;;;;;;21.53;39.57;101144.28;4923028;27;98523;-74
2023/06/25 06:12:42;;;;;;;;;;;;;;;21.72;39.50;101147.50;4935708;27;98416;-74
2023/06/25 06:15:09;;;;;;;;;;;;;;;22.27;38.91;101149.44;4941924;27;98609;-75
2023/06/25 06:17:35;;;;;;;;;;;;;;;22.40;39.03;101144.03;4921447;28;99779;-73
2023/06/25 06:20:03;;;;;;;;;;;;;;;23.06;38.30;101149.81;4928217;27;97852;-74
2023/06/25 06:22:29;;;;;;;;;;;;;;;23.25;38.90;101146.59;4927875;27;98031;-74
2023/06/25 06:24:56;;;;;;;;;;;;;;;23.37;38.78;101148.59;4929111;27;98193;-75
2023/06/25 06:27:22;;;;;;;;;;;;;;;23.36;38.95;101145.03;4940350;27;98788;-74
2023/06/25 06:29:48;;;;;;;;;;;;;;;23.39;39.10;101149.88;4942973;28;98172;-74
2023/06/25 06:32:15;;;;;;;;;;;;;;;23.47;38.89;101151.72;4922676;28;100893;-74
2023/06/25 06:34:41;;;;;;;;;;;;;;;23.48;39.20;101150.56;4941010;27;98349;-74
2023/06/25 06:37:08;;;;;;;;;;;;;;;23.48;39.03;101155.28;4944336;28;98402;-72
2023/06/25 06:39:34;;;;;;;;;;;;;;;23.49;39.20;101151.38;4922968;28;99850;-72
2023/06/25 06:42:00;;;;;;;;;;;;;;;23.67;39.12;101147.34;4928400;27;98335;-72
2023/06/25 06:44:28;;;;;;;;;;;;;;;24.56;37.99;101152.28;4922895;28;98326;-72
2023/06/25 06:46:54;;;;;;;;;;;;;;;24.33;38.71;101143.69;4928953;27;98464;-72
2023/06/25 06:49:20;;;;;;;;;;;;;;;24.32;38.93;101149.50;4922833;27;98353;-71
2023/06/25 06:51:47;;;;;;;;;;;;;;;24.36;38.93;101153.97;4921313;27;98533;-71
2023/06/25 06:54:13;;;;;;;;;;;;;;;24.42;38.88;101149.91;4916980;28;98511;-72
2023/06/25 06:56:40;;;;;;;;;;;;;;;24.39;38.91;101158.84;4930591;28;98461;-72
2023/06/25 06:59:06;;;;;;;;;;;;;;;24.30;38.90;101155.38;4925957;28;98106;-72
2023/06/25 07:01:34;;;;;;;;;;;;;;;24.30;39.03;101157.31;4928913;28;99434;-72
2023/06/25 07:04:01;;;;;;;;;;;;;;;24.29;38.96;101164.78;4925369;27;98279;-72
2023/06/25 07:06:27;;;;;;;;;;;;;;;24.33;39.19;101159.41;4926705;28;101338;-72
2023/06/25 07:08:54;;;;;;;;;;;;;;;24.36;39.06;101158.69;4935838;28;98268;-72
2023/06/25 07:11:21;;;;;;;;;;;;;;;24.38;39.17;101156.41;4929458;27;98063;-72
2023/06/25 07:13:47;;;;;;;;;;;;;;;24.39;39.34;101153.31;4928597;27;98241;-72
2023/06/25 07:16:14;;;;;;;;;;;;;;;24.43;39.13;101148.75;4925446;28;98531;-71
2023/06/25 07:18:40;;;;;;;;;;;;;;;24.44;39.35;101146.78;4945044;27;98176;-72
2023/06/25 07:21:07;;;;;;;;;;;;;;;24.44;39.08;101144.03;4923950;28;99262;-72
2023/06/25 07:23:36;;;;;;;;;;;;;;;24.48;39.05;101147.69;4928375;28;98109;-72
2023/06/25 07:26:04;;;;;;;;;;;;;;;24.57;39.22;101142.88;4940555;27;98287;-71
2023/06/25 07:28:32;;;;;;;;;;;;;;;24.63;39.03;101148.97;4924056;28;98341;-74
2023/06/25 07:31:01;;;;;;;;;;;;;;;24.74;39.13;101142.63;4918223;27;98215;-75
2023/06/25 07:33:28;;;;;;;;;;;;;;;24.98;38.87;101139.00;4945485;27;98007;-74
2023/06/25 07:35:54;;;;;;;;;;;;;;;25.39;38.52;101139.84;4940202;27;99112;-75
2023/06/25 07:38:20;;;;;;;;;;;;;;;25.74;38.21;101139.16;4925273;28;100082;-74
2023/06/25 07:40:48;;;;;;;;;;;;;;;26.08;38.16;101143.25;4923428;28;99137;-72
2023/06/25 07:43:15;;;;;;;;;;;;;;;26.19;38.26;101144.31;4928720;28;98457;-71
2023/06/25 07:45:42;;;;;;;;;;;;;;;26.24;38.22;101134.94;4943415;27;98225;-72
2023/06/25 07:48:09;;;;;;;;;;;;;;;26.34;38.28;101144.66;4945896;27;99026;-72
2023/06/25 07:50:35;;;;;;;;;;;;;;;26.35;38.37;101141.53;4924960;27;98638;-72
2023/06/25 07:53:02;;;;;;;;;;;;;;;26.36;38.48;101140.38;4933015;27;99705;-71
2023/06/25 07:55:28;;;;;;;;;;;;;;;26.40;38.46;101140.47;4945463;28;98688;-72
2023/06/25 07:57:55;;;;;;;;;;;;;;;26.45;38.32;101140.22;4923850;27;98297;-71
2023/06/25 08:00:21;;;;;;;;;;;;;;;26.46;38.62;101139.06;4928295;28;98326;-72
2023/06/25 08:02:47;;;;;;;;;;;;;;;26.50;38.58;101145.47;4926018;27;98276;-72
2023/06/25 08:05:14;;;;;;;;;;;;;;;26.54;38.53;101142.78;4942979;28;98787;-71
2023/06/25 08:07:41;;;;;;;;;;;;;;;26.53;38.74;101143.97;4941642;27;98325;-72
2023/06/25 08:10:07;;;;;;;;;;;;;;;26.55;38.72;101144.41;4927070;27;99523;-71
2023/06/25 08:12:34;;;;;;;;;;;;;;;26.63;38.63;101140.63;4940811;28;98371;-71
2023/06/25 08:15:01;;;;;;;;;;;;;;;26.79;38.51;101148.88;4926834;28;98415;-72
2023/06/25 08:17:27;;;;;;;;;;;;;;;27.01;38.31;101144.63;4941999;27;99048;-72
2023/06/25 08:19:53;;;;;;;;;;;;;;;27.43;38.22;101141.94;4942477;27;98517;-72
2023/06/25 08:22:19;;;;;;;;;;;;;;;27.55;37.77;101139.03;4959417;28;98652;-72
2023/06/25 08:24:45;;;;;;;;;;;;;;;27.70;37.70;101140.06;4926926;27;98943;-71
2023/06/25 08:27:12;;;;;;;;;;;;;;;27.89;37.65;101140.06;4923152;28;98536;-72
2023/06/25 08:29:40;;;;;;;;;;;;;;;28.07;37.50;101142.34;4944822;28;98369;-71
2023/06/25 08:32:07;;;;;;;;;;;;;;;28.13;37.92;101138.09;4943072;28;98060;-72
2023/06/25 08:34:33;;;;;;;;;;;;;;;28.11;37.99;101140.44;4922360;28;98213;-72
2023/06/25 08:36:59;;;;;;;;;;;;;;;28.06;37.86;101144.31;4923429;27;98207;-72
2023/06/25 08:39:26;;;;;;;;;;;;;;;28.10;38.08;101145.19;4939544;27;98279;-72
2023/06/25 08:41:53;;;;;;;;;;;;;;;28.26;37.99;101133.97;4925740;28;99671;-72
2023/06/25 08:44:20;;;;;;;;;;;;;;;28.67;37.38;101133.41;4938701;28;98226;-72
2023/06/25 08:46:47;;;;;;;;;;;;;;;28.81;37.33;101137.16;4928676;27;98072;-72
2023/06/25 08:49:14;;;;;;;;;;;;;;;29.06;37.54;101137.50;4939473;28;98453;-72
2023/06/25 08:51:41;;;;;;;;;;;;;;;29.28;37.24;101144.13;4924951;28;98297;-72
2023/06/25 08:54:08;;;;;;;;;;;;;;;29.58;37.07;101144.06;4925840;27;99423;-71
2023/06/25 08:56:35;;;;;;;;;;;;;;;29.96;36.72;101139.28;4926138;28;98255;-72
2023/06/25 08:59:01;;;;;;;;;;;;;;;32.24;34.66;101135.94;4924929;27;98269;-71
2023/06/25 09:01:28;;;;;;;;;;;;;;;31.93;35.45;101138.31;4945855;27;101183;-72
2023/06/25 09:03:56;;;;;;;;;;;;;;;32.48;34.90;101135.13;4927857;27;98094;-72
2023/06/25 09:06:22;;;;;;;;;;;;;;;32.77;34.90;101129.44;4943650;27;98561;-71
2023/06/25 09:08:48;;;;;;;;;;;;;;;32.68;35.71;101134.66;4943195;27;98111;-71
2023/06/25 09:11:15;;;;;;;;;;;;;;;33.46;34.61;101130.78;4925486;27;99715;-71
2023/06/25 09:13:41;;;;;;;;;;;;;;;34.37;34.40;101124.09;4928326;28;98319;-71
2023/06/25 09:16:08;;;;;;;;;;;;;;;35.58;33.44;101127.44;4949260;27;99059;-73
2023/06/25 09:18:35;;;;;;;;;;;;;;;38.93;30.74;101124.13;4945022;28;99280;-73
2023/06/25 09:21:05;;;;;;;;;;;;;;;40.06;30.43;101124.56;4930538;27;98385;-74
2023/06/25 09:23:32;;;;;;;;;;;;;;;39.27;31.95;101120.72;4939679;27;98068;-73
2023/06/25 09:26:00;;;;;;;;;;;;;;;40.28;31.39;101106.91;4928835;28;98408;-72
2023/06/25 09:28:26;;;;;;;;;;;;;;;39.74;32.50;101103.91;4921586;28;99304;-72
2023/06/25 09:30:59;;;;;;;;;;;;;;;40.02;32.26;101097.75;4937709;27;98221;-73
2023/06/25 09:33:35;;;;;;;;;;;;;;;40.54;31.98;101099.13;4929013;27;98136;-72
2023/06/25 09:36:04;;;;;;;;;;;;;;;41.31;31.94;101100.22;4923194;28;98617;-74
2023/06/25 09:38:31;;;;;;;;;;;;;;;42.31;30.94;101098.84;4942792;28;99134;-74
2023/06/25 09:40:59;;;;;;;;;;;;;;;43.33;30.40;101102.25;4928965;27;98025;-74
2023/06/25 09:43:26;;;;;;;;;;;;;;;44.14;30.01;101088.03;4928940;27;98224;-73
2023/06/25 09:45:53;;;;;;;;;;;;;;;44.99;29.74;101088.25;4928086;28;98013;-74
2023/06/25 09:48:24;;;;;;;;;;;;;;;45.53;29.74;101083.16;4926205;28;99068;-74
2023/06/25 09:50:54;;;;;;;;;;;;;;;45.90;29.57;101076.13;4941116;28;98212;-75
2023/06/25 09:53:22;;;;;;;;;;;;;;;46.25;29.76;101073.19;4972224;27;98654;-74
2023/06/25 09:55:50;;;;;;;;;;;;;;;46.57;29.89;101070.38;4930055;28;98513;-74
2023/06/25 09:58:17;;;;;;;;;;;;;;;46.99;29.79;101075.41;4946892;27;98482;-75
2023/06/25 10:00:43;;;;;;;;;;;;;;;47.52;29.55;101067.44;4939853;27;98577;-75
2023/06/25 10:03:10;;;;;;;;;;;;;;;47.77;29.48;101060.84;4929832;27;98251;-72
2023/06/25 10:05:37;;;;;;;;;;;;;;;47.91;29.44;101051.28;4943740;27;99115;-75
2023/06/25 10:08:04;;;;;;;;;;;;;;;48.29;29.51;101049.03;4930829;28;98169;-75
2023/06/25 10:10:31;;;;;;;;;;;;;;;48.41;29.76;101047.75;4928947;27;98134;-73
2023/06/25 10:13:00;;;;;;;;;;;;;;;48.37;29.80;101044.34;4919622;27;99463;-73
2023/06/25 10:15:47;;;;;;;;;;;;;;;48.39;29.87;101041.78;4942623;28;98286;-73
2023/06/25 10:18:22;;;;;;;;;;;;;;;48.56;29.78;101032.44;4922155;27;100406;-73
2023/06/25 10:20:48;;;;;;;;;;;;;;;48.72;29.80;101034.50;4916133;28;98233;-72
2023/06/25 10:23:15;;;;;;;;;;;;;;;48.59;29.88;101023.59;4944848;27;98266;-73
2023/06/25 10:25:53;;;;;;;;;;;;;;;48.59;30.11;101023.59;4928197;27;99166;-73
2023/06/25 10:28:20;;;;;;;;;;;;;;;45.62;32.64;101016.78;4943168;28;99470;-73
2023/06/25 10:30:48;;;;;;;;;;;;;;;43.43;34.08;101017.88;4926560;28;98790;-72
2023/06/25 10:33:18;;;;;;;;;;;;;;;41.74;35.51;101012.78;4943110;28;99218;-72
2023/06/25 10:35:47;;;;;;;;;;;;;;;40.30;36.23;101002.81;4936250;27;103685;-74
2023/06/25 10:38:15;;;;;;;;;;;;;;;39.06;36.64;101009.41;4941549;28;98176;-73
2023/06/25 10:40:42;;;;;;;;;;;;;;;38.04;36.98;100997.94;4895556;28;99882;-74
2023/06/25 10:43:09;;;;;;;;;;;;;;;37.16;37.66;101007.41;4923355;28;98146;-72
2023/06/25 10:45:35;;;;;;;;;;;;;;;36.40;37.67;101005.44;4926094;28;100229;-73
2023/06/25 10:48:10;;;;;;;;;;;;;;;35.80;38.13;100999.72;4945393;28;98358;-74
2023/06/25 10:50:36;;;;;;;;;;;;;;;35.29;38.21;100999.00;4931499;27;98580;-73
2023/06/25 10:53:04;;;;;;;;;;;;;;;34.97;37.70;100996.63;4927318;27;99576;-72
2023/06/25 10:55:30;;;;;;;;;;;;;;;34.85;37.80;100992.41;4923675;28;98520;-73
2023/06/25 10:57:56;;;;;;;;;;;;;;;35.09;37.32;100998.88;4923479;27;98145;-74
2023/06/25 11:00:23;;;;;;;;;;;;;;;35.61;36.29;100992.88;4915769;27;99776;-70
2023/06/25 11:02:54;;;;;;;;;;;;;;;36.84;35.00;100997.69;4911070;27;99851;-73
2023/06/25 11:05:30;;;;;;;;;;;;;;;38.91;33.14;100999.84;4924340;27;98109;-73
2023/06/25 11:07:57;;;;;;;;;;;;;;;40.42;32.01;101004.78;4929705;27;98215;-74
2023/06/25 11:10:26;;;;;;;;;;;;;;;40.97;31.87;101005.88;4923340;28;98157;-72
2023/06/25 11:12:52;;;;;;;;;;;;;;;41.82;31.57;100992.25;4956725;27;98371;-74
2023/06/25 11:15:19;;;;;;;;;;;;;;;42.45;31.52;100989.03;4924696;28;98065;-73
2023/06/25 11:17:45;;;;;;;;;;;;;;;41.93;31.72;100986.09;4957937;27;98892;-73
2023/06/25 11:20:12;;;;;;;;;;;;;;;41.15;32.87;100979.72;4929138;28;98937;-73
2023/06/25 11:22:42;;;;;;;;;;;;;;;41.22;32.71;100976.56;4942262;27;98124;-73
2023/06/25 11:25:09;;;;;;;;;;;;;;;42.16;31.66;100971.28;4925567;27;98380;-73
2023/06/25 11:27:37;;;;;;;;;;;;;;;43.16;31.30;100968.63;4924488;27;98850;-72
2023/06/25 11:30:03;;;;;;;;;;;;;;;43.57;30.96;100974.66;4941058;27;98180;-74
2023/06/25 11:32:30;;;;;;;;;;;;;;;43.88;30.98;100968.56;4954627;28;100879;-73
2023/06/25 11:34:57;;;;;;;;;;;;;;;44.09;31.18;100964.56;4928521;27;98179;-75
2023/06/25 11:37:23;;;;;;;;;;;;;;;44.28;30.97;100959.50;4915441;27;98802;-73
2023/06/25 11:39:50;;;;;;;;;;;;;;;41.93;33.55;100952.16;4948697;28;99272;-73
2023/06/25 11:42:21;;;;;;;;;;;;;;;40.58;34.41;100950.16;4924637;28;100567;-72
2023/06/25 11:45:08;;;;;;;;;;;;;;;39.41;35.11;100942.66;4928417;27;100171;-74
2023/06/25 11:47:34;;;;;;;;;;;;;;;38.34;35.91;100945.28;4930305;27;98280;-73
2023/06/25 11:50:01;;;;;;;;;;;;;;;37.56;36.00;100941.38;4945797;28;98096;-73
2023/06/25 11:52:28;;;;;;;;;;;;;;;36.90;36.53;100941.78;4944789;27;99010;-74
2023/06/25 11:54:55;;;;;;;;;;;;;;;36.34;36.63;100951.03;4921697;27;98894;-73
2023/06/25 11:57:21;;;;;;;;;;;;;;;35.86;36.79;100938.34;4922371;27;98871;-73
2023/06/25 11:59:47;;;;;;;;;;;;;;;35.55;36.77;100934.94;4943368;27;98052;-73
2023/06/25 12:02:13;;;;;;;;;;;;;;;35.40;36.72;100939.97;4926294;27;98091;-73
2023/06/25 12:04:39;;;;;;;;;;;;;;;35.49;36.33;100936.63;4924894;28;98130;-74
2023/06/25 12:07:06;;;;;;;;;;;;;;;37.25;34.68;100937.34;4923689;28;98265;-73
2023/06/25 12:09:34;;;;;;;;;;;;;;;37.97;33.76;100944.72;4906751;27;102049;-75
2023/06/25 12:12:01;;;;;;;;;;;;;;;38.44;33.75;100930.13;4952109;28;100186;-71
2023/06/25 12:14:27;;;;;;;;;;;;;;;38.55;33.64;100927.72;4941238;28;98676;-74
2023/06/25 12:16:53;;;;;;;;;;;;;;;38.82;33.80;100923.72;4919971;27;99265;-73
2023/06/25 12:19:20;;;;;;;;;;;;;;;38.75;33.87;100925.50;4937084;27;98813;-74
2023/06/25 12:21:46;;;;;;;;;;;;;;;38.54;33.81;100921.31;4921129;27;99816;-73
2023/06/25 12:24:12;;;;;;;;;;;;;;;39.03;33.74;100917.38;4922433;28;98172;-74
2023/06/25 12:26:38;;;;;;;;;;;;;;;39.43;33.32;100916.84;4933056;28;98823;-73
2023/06/25 12:29:05;;;;;;;;;;;;;;;38.98;33.69;100906.66;4918324;28;98262;-74
2023/06/25 12:31:32;;;;;;;;;;;;;;;38.86;33.96;100901.84;4911973;27;99554;-75
2023/06/25 12:33:59;;;;;;;;;;;;;;;38.88;33.88;100899.38;4923275;28;99387;-73
2023/06/25 12:36:25;;;;;;;;;;;;;;;38.21;34.88;100895.38;4935959;28;99104;-75